Time;durP1;ratioP1;P1;durP2;ratioP2;P2;SDS_P1;SDS_P2;PMS_P1;PMS_P2;Temp;Humidity;BMP_temperature;BMP_pressure;BME280_temperature;BME280_humidity;BME280_pressure;Samples;Min_cycle;Max_cycle;Signal;HPM_P1;HPM_P2
2022/12/24 00:01:38;;;;;;;20.33;13.10;;;;;;;;;;5069959;28;20417;-73
2022/12/24 00:04:05;;;;;;;20.55;14.25;;;;;;;;;;5071094;28;20032;-73
2022/12/24 00:06:31;;;;;;;23.92;13.90;;;;;;;;;;5074395;28;20041;-73
2022/12/24 00:08:57;;;;;;;22.02;14.05;;;;;;;;;;5073455;28;20044;-72
2022/12/24 00:11:23;;;;;;;19.08;13.38;;;;;;;;;;5065693;28;20059;-72
2022/12/24 00:13:49;;;;;;;18.55;12.48;;;;;;;;;;5070193;28;20044;-73
2022/12/24 00:16:15;;;;;;;21.33;14.38;;;;;;;;;;5102192;27;20482;-72
2022/12/24 00:18:42;;;;;;;23.08;13.25;;;;;;;;;;5068536;28;20074;-72
2022/12/24 00:21:08;;;;;;;22.65;16.08;;;;;;;;;;5099184;27;20044;-72
2022/12/24 00:23:34;;;;;;;24.02;16.05;;;;;;;;;;5070939;28;20113;-72
2022/12/24 00:26:00;;;;;;;23.33;16.58;;;;;;;;;;5070001;28;20048;-73
2022/12/24 00:28:26;;;;;;;26.88;18.02;;;;;;;;;;5065564;28;20045;-72
2022/12/24 00:30:52;;;;;;;28.70;18.80;;;;;;;;;;5084001;28;20051;-73
2022/12/24 00:33:19;;;;;;;27.60;18.30;;;;;;;;;;5070502;28;20040;-72
2022/12/24 00:35:49;;;;;;;23.63;16.00;;;;;;;;;;5094225;27;20067;-73
2022/12/24 00:38:15;;;;;;;22.45;14.20;;;;;;;;;;5068822;28;20048;-73
2022/12/24 00:40:41;;;;;;;21.55;14.68;;;;;;;;;;5068476;28;20036;-73
2022/12/24 00:43:07;;;;;;;23.77;15.40;;;;;;;;;;5076342;28;20033;-72
2022/12/24 00:45:33;;;;;;;26.88;16.02;;;;;;;;;;5067789;28;20056;-72
2022/12/24 00:47:59;;;;;;;22.17;13.45;;;;;;;;;;5066528;28;20041;-72
2022/12/24 00:50:25;;;;;;;20.85;13.20;;;;;;;;;;5072075;28;20392;-72
2022/12/24 00:52:52;;;;;;;21.05;14.20;;;;;;;;;;5069543;28;20051;-73
2022/12/24 00:55:18;;;;;;;21.05;13.98;;;;;;;;;;5070413;28;20055;-72
2022/12/24 00:57:44;;;;;;;23.20;15.18;;;;;;;;;;5072343;28;20316;-73
2022/12/24 01:00:10;;;;;;;24.67;14.48;;;;;;;;;;5073167;28;20166;-72
2022/12/24 01:02:37;;;;;;;19.63;12.63;;;;;;;;;;5070553;28;20530;-72
2022/12/24 01:05:09;;;;;;;23.80;15.77;;;;;;;;;;5078822;28;20059;-73
2022/12/24 01:07:36;;;;;;;23.15;14.48;;;;;;;;;;5069720;28;20110;-73
2022/12/24 01:10:03;;;;;;;24.02;14.80;;;;;;;;;;5068939;28;20044;-73
2022/12/24 01:12:29;;;;;;;21.30;14.80;;;;;;;;;;5072380;28;20059;-73
2022/12/24 01:14:56;;;;;;;27.02;16.13;;;;;;;;;;5068033;28;20060;-73
2022/12/24 01:17:22;;;;;;;24.35;13.93;;;;;;;;;;5072118;28;20051;-72
2022/12/24 01:19:48;;;;;;;26.73;15.18;;;;;;;;;;5073998;28;20048;-72
2022/12/24 01:22:14;;;;;;;22.50;14.98;;;;;;;;;;5054202;28;20059;-72
2022/12/24 01:24:41;;;;;;;20.02;14.48;;;;;;;;;;5071495;28;20478;-73
2022/12/24 01:27:07;;;;;;;22.50;14.43;;;;;;;;;;5069700;28;20041;-72
2022/12/24 01:29:33;;;;;;;23.15;14.95;;;;;;;;;;5075703;28;20037;-72
2022/12/24 01:32:00;;;;;;;26.98;14.98;;;;;;;;;;5067247;28;20050;-73
2022/12/24 01:34:26;;;;;;;26.08;16.10;;;;;;;;;;5067768;28;20076;-73
2022/12/24 01:36:52;;;;;;;23.05;14.05;;;;;;;;;;5062903;28;20071;-73
2022/12/24 01:39:18;;;;;;;24.58;14.70;;;;;;;;;;5053682;28;20115;-73
2022/12/24 01:44:30;;;;;;;25.80;14.40;;;;;;;;;;5068626;28;20075;-72
2022/12/24 01:47:19;;;;;;;23.20;15.23;;;;;;;;;;5068199;28;20051;-73
2022/12/24 01:49:49;;;;;;;26.48;16.80;;;;;;;;;;5062357;28;20103;-73
2022/12/24 01:52:28;;;;;;;23.98;14.93;;;;;;;;;;5066917;28;20040;-72
2022/12/24 01:54:58;;;;;;;20.95;15.07;;;;;;;;;;5079291;28;20038;-72
2022/12/24 01:57:25;;;;;;;24.00;14.82;;;;;;;;;;5077105;28;20123;-72
2022/12/24 01:59:54;;;;;;;23.40;15.15;;;;;;;;;;5063272;28;20072;-72
2022/12/24 02:02:21;;;;;;;21.38;14.73;;;;;;;;;;5048721;28;20037;-73
2022/12/24 02:05:08;;;;;;;21.33;14.23;;;;;;;;;;5052742;28;20056;-72
2022/12/24 02:07:34;;;;;;;23.60;15.50;;;;;;;;;;5067880;28;20529;-72
2022/12/24 02:10:01;;;;;;;20.75;15.00;;;;;;;;;;5068332;28;20098;-72
2022/12/24 02:12:28;;;;;;;24.23;16.55;;;;;;;;;;5071316;28;20103;-73
2022/12/24 02:14:55;;;;;;;21.38;15.23;;;;;;;;;;5070658;28;20540;-72
2022/12/24 02:17:30;;;;;;;25.13;16.67;;;;;;;;;;5090013;28;20054;-72
2022/12/24 02:20:17;;;;;;;22.65;16.23;;;;;;;;;;5091698;28;20127;-73
2022/12/24 02:22:43;;;;;;;26.95;16.02;;;;;;;;;;5037620;28;20127;-73
2022/12/24 02:25:09;;;;;;;23.10;16.55;;;;;;;;;;5093582;28;20042;-72
2022/12/24 02:27:35;;;;;;;24.23;15.63;;;;;;;;;;5088291;28;20194;-72
2022/12/24 02:30:10;;;;;;;27.73;16.88;;;;;;;;;;5090673;28;20044;-72
2022/12/24 02:32:36;;;;;;;20.90;13.75;;;;;;;;;;5076095;28;20036;-72
2022/12/24 02:35:14;;;;;;;24.20;15.45;;;;;;;;;;5093702;28;20538;-73
2022/12/24 02:37:44;;;;;;;25.92;16.10;;;;;;;;;;5094126;28;20409;-73
2022/12/24 02:40:12;;;;;;;24.00;14.40;;;;;;;;;;5096589;28;20124;-72
2022/12/24 02:42:44;;;;;;;26.38;15.65;;;;;;;;;;5095640;28;20081;-73
2022/12/24 02:45:11;;;;;;;21.80;13.93;;;;;;;;;;5076714;28;20046;-73
2022/12/24 02:47:38;;;;;;;27.42;16.17;;;;;;;;;;5072546;28;20045;-71
2022/12/24 02:50:07;;;;;;;32.17;16.15;;;;;;;;;;5088675;28;20036;-73
2022/12/24 02:52:34;;;;;;;23.70;14.93;;;;;;;;;;5093311;28;20032;-72
2022/12/24 02:55:11;;;;;;;28.67;15.20;;;;;;;;;;5057069;28;20036;-73
2022/12/24 02:57:37;;;;;;;19.70;13.38;;;;;;;;;;5084975;28;20082;-72
2022/12/24 03:00:07;;;;;;;23.70;14.38;;;;;;;;;;5090942;28;20468;-73
2022/12/24 03:02:46;;;;;;;27.17;13.75;;;;;;;;;;5093276;28;20073;-73
2022/12/24 03:05:25;;;;;;;23.10;11.45;;;;;;;;;;5087425;28;20040;-73
2022/12/24 03:07:57;;;;;;;21.10;12.20;;;6.90;99.90;;;;;;5079184;28;20149;-72
2022/12/24 03:10:47;;;;;;;19.92;11.63;;;7.30;99.90;;;;;;5074747;28;20097;-72
2022/12/24 03:13:15;;;;;;;18.40;11.48;;;7.30;99.90;;;;;;5077209;28;20036;-72
2022/12/24 03:15:43;;;;;;;20.52;10.50;;;7.30;99.90;;;;;;5091578;28;20052;-72
2022/12/24 03:18:12;;;;;;;15.00;9.77;;;7.30;99.90;;;;;;5077064;28;20094;-73
2022/12/24 03:20:45;;;;;;;16.52;10.35;;;7.40;99.90;;;;;;5094992;28;20040;-72
2022/12/24 03:23:12;;;;;;;17.77;8.38;;;7.40;99.90;;;;;;5083696;28;20141;-72
2022/12/24 03:25:40;;;;;;;17.55;9.32;;;7.40;99.90;;;;;;5081933;28;20597;-72
2022/12/24 03:28:07;;;;;;;14.35;9.00;;;;;;;;;;5095245;28;20040;-73
2022/12/24 03:30:33;;;;;;;17.10;9.10;;;;;;;;;;5095257;28;20044;-73
2022/12/24 03:32:59;;;;;;;23.02;10.35;;;;;;;;;;5091379;28;20052;-72
2022/12/24 03:35:25;;;;;;;25.35;9.80;;;;;;;;;;5078311;28;20101;-72
2022/12/24 03:37:51;;;;;;;20.98;10.25;;;;;;;;;;5093352;28;20051;-73
2022/12/24 03:40:18;;;;;;;21.52;10.02;;;;;;;;;;5091446;28;20101;-72
2022/12/24 03:42:44;;;;;;;25.23;9.80;;;;;;;;;;5094844;28;20125;-72
2022/12/24 03:45:10;;;;;;;15.50;9.90;;;;;;;;;;5096241;28;20032;-72
2022/12/24 03:47:36;;;;;;;20.55;9.73;;;;;;;;;;5079193;28;20495;-72
2022/12/24 03:50:02;;;;;;;24.05;9.82;;;;;;;;;;5079166;28;20097;-72
2022/12/24 03:52:29;;;;;;;26.33;10.85;;;;;;;;;;5103782;28;20028;-72
2022/12/24 03:54:55;;;;;;;16.15;9.90;;;;;;;;;;5102491;28;20127;-72
2022/12/24 03:57:21;;;;;;;21.25;9.40;;;;;;;;;;5072587;28;20036;-72
2022/12/24 03:59:47;;;;;;;26.60;9.27;;;;;;;;;;5073645;28;20080;-72
2022/12/24 04:02:13;;;;;;;15.60;10.18;;;;;;;;;;5096674;28;20075;-73
2022/12/24 04:04:39;;;;;;;23.88;10.05;;;;;;;;;;5096948;28;20068;-73
2022/12/24 04:07:06;;;;;;;18.98;9.05;;;;;;;;;;5080801;28;20044;-72
2022/12/24 04:09:32;;;;;;;18.90;8.77;;;;;;;;;;5077387;28;20040;-73
2022/12/24 04:11:58;;;;;;;34.58;13.35;;;;;;;;;;5093191;28;20438;-73
2022/12/24 04:14:24;;;;;;;23.58;10.15;;;;;;;;;;5073905;28;20028;-72
2022/12/24 04:16:51;;;;;;;22.90;9.30;;;;;;;;;;5101696;28;20394;-72
2022/12/24 04:19:17;;;;;;;43.92;10.43;;;;;;;;;;5098038;28;20113;-73
2022/12/24 04:21:43;;;;;;;28.05;9.02;;;;;;;;;;5095258;28;20028;-73
2022/12/24 04:24:09;;;;;;;25.23;8.90;;;;;;;;;;5074173;28;20036;-72
2022/12/24 04:26:35;;;;;;;29.38;9.40;;;;;;;;;;5097159;28;20046;-72
2022/12/24 04:29:01;;;;;;;31.95;10.00;;;;;;;;;;5077692;28;20075;-72
2022/12/24 04:31:27;;;;;;;34.17;8.80;;;;;;;;;;5094204;28;20090;-72
2022/12/24 04:33:53;;;;;;;27.23;9.45;;;;;;;;;;5075509;28;20469;-72
2022/12/24 04:36:20;;;;;;;24.80;8.95;;;;;;;;;;5097071;28;20097;-72
2022/12/24 04:38:47;;;;;;;34.38;9.57;;;;;;;;;;5108303;27;20081;-72
2022/12/24 04:41:15;;;;;;;37.63;9.07;;;;;;;;;;5091452;28;20044;-72
2022/12/24 04:43:41;;;;;;;25.95;9.93;;;;;;;;;;5091307;28;20036;-72
2022/12/24 04:46:13;;;;;;;36.67;10.73;;;;;;;;;;5077265;28;20032;-72
2022/12/24 04:48:40;;;;;;;28.23;8.97;;;;;;;;;;5108199;28;20040;-72
2022/12/24 04:51:07;;;;;;;31.40;10.57;;;;;;;;;;5096204;28;20032;-72
2022/12/24 04:53:34;;;;;;;27.98;10.45;;;;;;;;;;5083028;28;20032;-72
2022/12/24 04:56:00;;;;;;;28.40;10.63;;;;;;;;;;5090501;28;20038;-72
2022/12/24 04:58:27;;;;;;;26.15;11.98;;;;;;;;;;5091179;28;20048;-72
2022/12/24 05:00:53;;;;;;;30.88;10.13;;;;;;;;;;5071154;28;20040;-72
2022/12/24 05:03:19;;;;;;;33.88;10.68;;;;;;;;;;5072937;28;20036;-72
2022/12/24 05:05:46;;;;;;;32.72;10.05;;;;;;;;;;5084165;28;20024;-72
2022/12/24 05:08:12;;;;;;;35.55;9.55;;;;;;;;;;5089763;28;20044;-73
2022/12/24 05:10:38;;;;;;;32.53;10.32;;;;;;;;;;5095374;28;20607;-72
2022/12/24 05:13:04;;;;;;;21.63;8.70;;;;;;;;;;5066528;28;20036;-72
2022/12/24 05:15:31;;;;;;;31.35;10.25;;;;;;;;;;5071281;28;20048;-73
2022/12/24 05:17:57;;;;;;;38.17;10.20;;;;;;;;;;5069058;28;20128;-72
2022/12/24 05:20:23;;;;;;;38.83;10.55;;;;;;;;;;5069019;28;20451;-72
2022/12/24 05:28:22;;;;;;;28.77;9.80;;;;;;;;;;5062107;28;20037;-72
2022/12/24 05:30:48;;;;;;;30.27;9.77;;;;;;;;;;5070754;28;20029;-72
2022/12/24 05:33:14;;;;;;;37.08;11.80;;;;;;;;;;5071736;28;20121;-72
2022/12/24 05:35:40;;;;;;;39.85;10.60;;;;;;;;;;5069652;28;20033;-71
2022/12/24 05:38:06;;;;;;;34.55;9.15;;;;;;;;;;5069927;28;20052;-72
2022/12/24 05:40:32;;;;;;;41.45;10.05;;;;;;;;;;5074038;28;20044;-72
2022/12/24 05:42:58;;;;;;;32.60;11.05;;;;;;;;;;5070357;28;20037;-72
2022/12/24 05:45:25;;;;;;;27.20;9.57;;;;;;;;;;5059008;28;20098;-72
2022/12/24 05:47:51;;;;;;;34.85;10.27;;;;;;;;;;5069228;28;20047;-72
2022/12/24 05:50:17;;;;;;;25.60;9.63;;;;;;;;;;5070484;28;20155;-72
2022/12/24 05:52:43;;;;;;;38.50;9.95;;;;;;;;;;5072574;28;20032;-72
2022/12/24 05:55:09;;;;;;;27.50;10.57;;;;;;;;;;5068073;28;20032;-72
2022/12/24 05:57:35;;;;;;;40.00;10.38;;;;;;;;;;5066247;28;20470;-72
2022/12/24 06:00:02;;;;;;;35.58;9.88;;;;;;;;;;5065846;28;20135;-72
2022/12/24 06:02:28;;;;;;;24.45;9.85;;;;;;;;;;5068620;28;20091;-72
2022/12/24 06:04:54;;;;;;;28.15;8.07;;;;;;;;;;5067286;28;20123;-72
2022/12/24 06:07:20;;;;;;;36.63;11.75;;;;;;;;;;5066752;28;20750;-71
2022/12/24 06:09:46;;;;;;;40.42;11.25;;;;;;;;;;5068372;28;20045;-71
2022/12/24 06:12:12;;;;;;;31.80;11.10;;;;;;;;;;5071075;28;20792;-72
2022/12/24 06:14:38;;;;;;;34.88;9.98;;;;;;;;;;5069266;28;20032;-72
2022/12/24 06:17:05;;;;;;;31.40;9.73;;;;;;;;;;5090335;28;20157;-71
2022/12/24 06:19:31;;;;;;;32.40;10.93;;;;;;;;;;5077426;28;20130;-72
2022/12/24 06:21:57;;;;;;;31.50;9.50;;;;;;;;;;5090906;28;20066;-73
2022/12/24 06:24:23;;;;;;;37.03;10.52;;;;;;;;;;5082251;28;20082;-72
2022/12/24 06:26:49;;;;;;;34.55;9.27;;;;;;;;;;5075146;28;20263;-72
2022/12/24 06:29:15;;;;;;;36.75;10.43;;;;;;;;;;5087951;28;20451;-72
2022/12/24 06:31:41;;;;;;;30.80;8.82;;;;;;;;;;5065346;28;20036;-72
2022/12/24 06:34:07;;;;;;;29.02;8.55;;;;;;;;;;5078042;28;20081;-72
2022/12/24 06:36:33;;;;;;;31.05;9.55;;;;;;;;;;5074743;28;20431;-71
2022/12/24 06:39:00;;;;;;;38.05;10.48;;;;;;;;;;5088143;28;20097;-72
2022/12/24 06:41:26;;;;;;;26.90;8.23;;;;;;;;;;5078926;28;20045;-72
2022/12/24 06:43:53;;;;;;;24.23;7.28;;;;;;;;;;5091874;28;20047;-72
2022/12/24 06:46:20;;;;;;;35.95;10.77;;;;;;;;;;5062826;28;20083;-72
2022/12/24 06:48:46;;;;;;;40.00;9.55;;;;;;;;;;5105502;27;20566;-72
2022/12/24 06:51:13;;;;;;;25.77;9.70;;;;;;;;;;5090036;28;20100;-72
2022/12/24 06:53:39;;;;;;;33.35;8.95;;;;;;;;;;5074312;28;20075;-72
2022/12/24 06:56:07;;;;;;;25.88;8.52;;;;;;;;;;5086089;28;20044;-72
2022/12/24 06:58:34;;;;;;;32.58;10.38;;;;;;;;;;5084328;28;20051;-72
2022/12/24 07:01:04;;;;;;;30.52;10.77;;;;;;;;;;5069229;28;20040;-72
2022/12/24 07:03:30;;;;;;;39.67;8.88;;;;;;;;;;5090109;28;20136;-72
2022/12/24 07:05:57;;;;;;;30.65;9.35;;;;;;;;;;5088479;28;20490;-72
2022/12/24 07:08:23;;;;;;;32.55;9.50;;;;;;;;;;5091996;28;20138;-72
2022/12/24 07:10:51;;;;;;;27.45;9.60;;;;;;;;;;5088115;28;20127;-72
2022/12/24 07:13:17;;;;;;;33.22;9.07;;;;;;;;;;5086261;28;20489;-72
2022/12/24 07:15:44;;;;;;;42.25;8.75;;;;;;;;;;5086050;28;20163;-72
2022/12/24 07:18:11;;;;;;;29.48;10.55;;;;;;;;;;5085012;28;20048;-72
2022/12/24 07:20:37;;;;;;;33.17;9.07;;;;;;;;;;5069677;28;20047;-73
2022/12/24 07:23:03;;;;;;;24.95;7.47;;;;;;;;;;5071933;28;20047;-71
2022/12/24 07:25:29;;;;;;;29.08;9.93;;;;;;;;;;5100408;27;20046;-72
2022/12/24 07:27:56;;;;;;;26.88;9.82;;;;;;;;;;5087357;28;20128;-72
2022/12/24 07:30:22;;;;;;;25.05;8.48;;;;;;;;;;5097331;27;20033;-72
2022/12/24 07:32:48;;;;;;;27.75;7.75;;;;;;;;;;5087672;28;20042;-72
2022/12/24 07:35:14;;;;;;;36.75;9.73;;;;;;;;;;5088911;28;20043;-72
2022/12/24 07:37:40;;;;;;;28.90;8.65;;;;;;;;;;5070041;28;20044;-72
2022/12/24 07:40:08;;;;;;;30.98;8.75;;;;;;;;;;5056627;28;20497;-72
2022/12/24 07:42:35;;;;;;;28.17;8.30;;;;;;;;;;5100278;27;20040;-72
2022/12/24 07:45:01;;;;;;;32.40;7.30;;;;;;;;;;5093134;28;20463;-72
2022/12/24 07:47:27;;;;;;;35.10;10.02;;;;;;;;;;5095407;28;20055;-72
2022/12/24 07:49:53;;;;;;;30.35;9.07;;;;;;;;;;5087980;28;20040;-72
2022/12/24 07:52:19;;;;;;;25.17;8.02;;;;;;;;;;5091980;28;20036;-72
2022/12/24 07:54:45;;;;;;;24.15;8.52;;;;;;;;;;5086608;28;21193;-72
2022/12/24 07:57:11;;;;;;;24.40;9.45;;;;;;;;;;5077958;28;20135;-72
2022/12/24 07:59:38;;;;;;;29.70;8.32;;;;;;;;;;5093953;27;20082;-72
2022/12/24 08:02:04;;;;;;;27.98;9.18;;;;;;;;;;5080142;28;20059;-72
2022/12/24 08:04:32;;;;;;;30.52;9.95;;;;;;;;;;5080738;28;20054;-72
2022/12/24 08:06:58;;;;;;;30.80;8.25;;;;;;;;;;5084923;28;20728;-72
2022/12/24 08:09:24;;;;;;;36.45;9.68;;;;;;;;;;5074556;28;20186;-72
2022/12/24 08:11:50;;;;;;;29.25;9.73;;;;;;;;;;5085002;28;20051;-72
2022/12/24 08:14:16;;;;;;;29.38;10.75;;;;;;;;;;5081661;28;20500;-71
2022/12/24 08:16:44;;;;;;;32.30;12.23;;;;;;;;;;5072061;28;20056;-72
2022/12/24 08:19:10;;;;;;;28.00;9.63;;;;;;;;;;5087012;28;20817;-72
2022/12/24 08:21:36;;;;;;;25.48;9.85;;;;;;;;;;5093454;28;20101;-72
2022/12/24 08:24:02;;;;;;;29.40;9.63;;;;;;;;;;5106782;27;20059;-72
2022/12/24 08:26:28;;;;;;;45.50;10.43;;;;;;;;;;5102715;27;20044;-72
2022/12/24 08:28:55;;;;;;;30.83;9.40;;;;;;;;;;5091444;28;20093;-71
2022/12/24 08:31:21;;;;;;;26.48;9.82;;;;;;;;;;5061863;28;20501;-72
2022/12/24 08:33:47;;;;;;;30.38;10.10;;;;;;;;;;5106959;27;20108;-72
2022/12/24 08:36:13;;;;;;;34.60;10.48;;;;;;;;;;5102615;28;20048;-72
2022/12/24 08:38:39;;;;;;;32.33;10.52;;;;;;;;;;5098062;28;20039;-72
2022/12/24 08:41:06;;;;;;;29.27;9.60;;;;;;;;;;5095559;28;20055;-72
2022/12/24 08:43:32;;;;;;;24.85;9.50;;;;;;;;;;5089666;28;20054;-72
2022/12/24 08:46:02;;;;;;;25.15;8.60;;;;;;;;;;5071576;28;20043;-72
2022/12/24 08:48:29;;;;;;;32.40;8.82;;;;;;;;;;5090585;28;20044;-73
2022/12/24 08:50:55;;;;;;;31.35;9.68;;;;;;;;;;5085725;28;20119;-72
2022/12/24 08:53:21;;;;;;;28.02;9.98;;;;;;;;;;5079557;28;20062;-72
2022/12/24 08:55:47;;;;;;;28.00;8.82;;;;;;;;;;5072332;28;20096;-73
2022/12/24 08:58:13;;;;;;;29.67;9.35;;;;;;;;;;5090078;28;20039;-72
2022/12/24 09:00:39;;;;;;;29.08;9.27;;;;;;;;;;5069616;28;20093;-72
2022/12/24 09:03:06;;;;;;;39.33;23.27;;;;;;;;;;5090193;28;20524;-72
2022/12/24 09:05:32;;;;;;;27.85;12.02;;;;;;;;;;5090163;28;20044;-72
2022/12/24 09:07:58;;;;;;;40.20;13.93;;;;;;;;;;5073968;28;20040;-73
2022/12/24 09:10:25;;;;;;;31.63;13.63;;;;;;;;;;5083083;28;20497;-72
2022/12/24 09:12:51;;;;;;;34.17;10.05;;;;;;;;;;5091554;28;20127;-73
2022/12/24 09:15:17;;;;;;;45.85;10.70;;;;;;;;;;5089045;28;21518;-72
2022/12/24 09:17:44;;;;;;;34.00;8.93;;;;;;;;;;5088524;28;20048;-72
2022/12/24 09:20:10;;;;;;;39.92;11.52;;;;;;;;;;5080883;28;20049;-73
2022/12/24 09:22:37;;;;;;;30.63;10.80;;;;;;;;;;5076161;28;20047;-73
2022/12/24 09:25:05;;;;;;;37.08;9.95;;;;;;;;;;5089618;28;20028;-73
2022/12/24 09:27:31;;;;;;;28.17;9.02;;;;;;;;;;5092550;28;20042;-72
2022/12/24 09:29:57;;;;;;;28.60;8.63;;;;;;;;;;5091239;28;20049;-72
2022/12/24 09:32:23;;;;;;;24.38;9.82;;;;;;;;;;5090573;28;20032;-73
2022/12/24 09:34:49;;;;;;;33.20;9.55;;;;;;;;;;5075182;28;20497;-73
2022/12/24 09:37:19;;;;;;;30.70;9.88;;;;;;;;;;5085862;28;20497;-73
2022/12/24 09:39:45;;;;;;;33.42;10.75;;;;;;;;;;5072089;28;20390;-72
2022/12/24 09:42:30;;;;;;;27.40;9.93;;;;;;;;;;5070401;28;20040;-73
2022/12/24 09:45:00;;;;;;;42.00;10.15;;;;;;;;;;5093309;28;20093;-73
2022/12/24 09:47:32;;;;;;;46.90;12.52;;;;;;;;;;5093814;28;20130;-72
2022/12/24 09:50:01;;;;;;;35.53;9.13;;;;;;;;;;5074525;28;20040;-73
2022/12/24 09:52:33;;;;;;;33.03;11.82;;;;;;;;;;5070990;28;20033;-72
2022/12/24 09:55:05;;;;;;;34.58;9.52;;;;;;;;;;5094460;28;20063;-72
2022/12/24 09:57:35;;;;;;;32.53;9.43;;;;;;;;;;5080895;28;20044;-72
2022/12/24 10:00:02;;;;;;;31.15;11.15;;;;;;;;;;5089293;28;20479;-72
2022/12/24 10:02:28;;;;;;;26.98;9.30;;;;;;;;;;5100595;28;20039;-73
2022/12/24 10:04:55;;;;;;;23.10;8.75;;;;;;;;;;5077174;28;20285;-73
2022/12/24 10:07:24;;;;;;;27.58;9.43;;;;;;;;;;5065807;28;20214;-72
2022/12/24 10:10:10;;;;;;;26.27;8.68;;;;;;;;;;5082781;28;20035;-73
2022/12/24 10:12:55;;;;;;;30.08;9.63;;;;;;;;;;5075545;28;20032;-73
2022/12/24 10:15:22;;;;;;;30.30;9.90;;;;;;;;;;5057620;28;20044;-72
2022/12/24 10:17:57;;;;;;;34.40;14.05;;;;;;;;;;5107396;28;20075;-73
2022/12/24 10:20:23;;;;;;;35.58;14.70;;;;;;;;;;5090234;28;20540;-73
2022/12/24 10:22:52;;;;;;;36.42;14.40;;;;;;;;;;5090319;28;20036;-72
2022/12/24 10:25:42;;;;;;;29.33;11.32;;;;;;;;;;5089630;28;20071;-72
2022/12/24 10:28:19;;;;;;;40.47;11.32;;;;;;;;;;5046656;28;20099;-72
2022/12/24 10:30:48;;;;;;;27.65;9.60;;;;;;;;;;5079530;28;20397;-72
2022/12/24 10:33:34;;;;;;;35.35;11.23;;;;;;;;;;5073834;28;20044;-72
2022/12/24 10:36:01;;;;;;;38.22;12.55;;;;;;;;;;5087111;28;20042;-72
2022/12/24 10:38:27;;;;;;;35.45;15.68;;;;;;;;;;5066258;28;20040;-72
2022/12/24 10:40:55;;;;;;;33.60;11.60;;;;;;;;;;5086527;28;20062;-72
2022/12/24 10:43:23;;;;;;;39.63;11.93;;;;;;;;;;5092364;28;20115;-73
2022/12/24 10:45:51;;;;;;;30.65;12.45;;;;;;;;;;5089594;28;20042;-72
2022/12/24 10:48:23;;;;;;;37.15;13.70;;;;;;;;;;5107618;28;20051;-72
2022/12/24 10:50:52;;;;;;;35.03;13.52;;;;;;;;;;5072560;28;20036;-72
2022/12/24 10:53:22;;;;;;;32.63;10.98;;;;;;;;;;5090449;28;20283;-72
2022/12/24 10:55:48;;;;;;;25.45;9.23;;;;;;;;;;5074584;28;20093;-72
2022/12/24 10:58:16;;;;;;;37.15;11.90;;;;;;;;;;5088636;28;20114;-73
2022/12/24 11:00:48;;;;;;;41.00;15.93;;;;;;;;;;5077686;28;20076;-72
2022/12/24 11:03:18;;;;;;;21.75;10.20;;;;;;;;;;5094403;28;20122;-73
2022/12/24 11:05:44;;;;;;;28.08;9.52;;;;;;;;;;5105049;28;20033;-73
2022/12/24 11:08:14;;;;;;;33.92;9.60;;;;;;;;;;5070910;28;20044;-72
2022/12/24 11:10:42;;;;;;;25.25;9.00;;;;;;;;;;5070415;28;20043;-72
2022/12/24 11:13:37;;;;;;;22.10;8.05;;;;;;;;;;5083089;28;20067;-72
2022/12/24 11:16:22;;;;;;;31.30;9.18;;;;;;;;;;5059379;28;20410;-72
2022/12/24 11:18:50;;;;;;;22.05;7.50;;;;;;;;;;5088198;28;20048;-72
2022/12/24 11:21:20;;;;;;;24.35;7.18;;;;;;;;;;5089719;28;20131;-72
2022/12/24 11:23:51;;;;;;;20.10;7.90;;;;;;;;;;5081696;28;20042;-73
2022/12/24 11:26:21;;;;;;;20.73;8.35;;;;;;;;;;5104717;28;20089;-72
2022/12/24 11:29:02;;;;;;;28.83;6.82;;;;;;;;;;5087810;28;20047;-72
2022/12/24 11:31:31;;;;;;;16.83;8.25;;;;;;;;;;5072277;28;20130;-72
2022/12/24 11:33:57;;;;;;;26.05;7.82;;;;;;;;;;5088172;28;20482;-72
2022/12/24 11:36:26;;;;;;;26.38;7.95;;;;;;;;;;5092859;28;20036;-72
2022/12/24 11:38:56;;;;;;;16.83;5.03;;;;;;;;;;5102716;28;20442;-72
2022/12/24 11:41:24;;;;;;;19.13;7.07;;;;;;;;;;5079516;28;20054;-73
2022/12/24 11:43:51;;;;;;;27.50;6.90;;;;;;;;;;5067998;28;20044;-72
2022/12/24 11:46:35;;;;;;;17.33;6.50;;;;;;;;;;5071776;28;20044;-72
2022/12/24 11:49:24;;;;;;;23.00;7.30;;;;;;;;;;5090899;28;20431;-72
2022/12/24 11:52:05;;;;;;;24.95;8.27;;;;;;;;;;5084843;28;20044;-72
2022/12/24 11:54:35;;;;;;;23.80;8.02;;;;;;;;;;5073805;28;20504;-72
2022/12/24 11:57:01;;;;;;;23.00;6.93;;;;;;;;;;5092941;28;20106;-72
2022/12/24 11:59:42;;;;;;;19.67;7.85;;;;;;;;;;5093687;28;20123;-72
2022/12/24 12:02:27;;;;;;;23.92;7.43;;;;;;;;;;5088784;28;20047;-72
2022/12/24 12:05:15;;;;;;;17.75;6.25;;;;;;;;;;5082553;28;20046;-72
2022/12/24 12:07:42;;;;;;;35.20;8.23;;;;;;;;;;5089076;28;20083;-72
2022/12/24 12:10:20;;;;;;;16.80;7.25;;;;;;;;;;5109964;27;20179;-72
2022/12/24 12:12:54;;;;;;;18.50;6.55;;;;;;;;;;5092265;28;20047;-72
2022/12/24 12:15:22;;;;;;;27.20;7.35;;;;;;;;;;5067894;28;20048;-72
2022/12/24 12:18:04;;;;;;;21.10;6.07;;;;;;;;;;5084769;28;20058;-72
2022/12/24 12:20:51;;;;;;;22.88;6.20;;;;;;;;;;5067641;28;20048;-72
2022/12/24 12:23:23;;;;;;;21.10;6.55;;;;;;;;;;5065896;28;20100;-73
2022/12/24 12:25:50;;;;;;;19.58;6.13;;;;;;;;;;5065382;28;20036;-72
2022/12/24 12:28:28;;;;;;;29.02;7.00;;;;;;;;;;5079625;28;20390;-72
2022/12/24 12:31:04;;;;;;;15.95;6.20;;;;;;;;;;5086238;28;20040;-72
2022/12/24 12:33:42;;;;;;;16.02;5.78;;;;;;;;;;5073280;28;20040;-71
2022/12/24 12:36:10;;;;;;;22.17;6.82;;;;;;;;;;5078571;28;20032;-72
2022/12/24 12:38:37;;;;;;;22.67;5.93;;;;;;;;;;5059451;28;20039;-72
2022/12/24 12:41:43;;;;;;;15.27;7.18;;;;;;;;;;5085177;28;20139;-72
2022/12/24 12:44:12;;;;;;;26.27;7.15;;;;;;;;;;5034082;28;20032;-71
2022/12/24 12:46:56;;;;;;;22.67;6.30;;;;;;;;;;5027133;28;20049;-72
2022/12/24 12:49:25;;;;;;;21.08;5.97;;;;;;;;;;5066353;28;20489;-72
2022/12/24 12:51:54;;;;;;;12.23;5.35;;;;;;;;;;5067498;28;20036;-72
2022/12/24 12:54:27;;;;;;;14.30;4.72;;;;;;;;;;5084061;28;20448;-72
2022/12/24 12:56:55;;;;;;;23.45;5.50;;;;;;;;;;5074629;28;20498;-72
2022/12/24 12:59:37;;;;;;;19.58;5.75;;;;;;;;;;5088407;28;20114;-72
2022/12/24 13:02:17;;;;;;;25.08;6.18;;;;;;;;;;5073423;28;20056;-72
2022/12/24 13:04:43;;;;;;;14.93;6.38;;;;;;;;;;5086509;28;20039;-72
2022/12/24 13:07:29;;;;;;;24.77;5.85;;;;;;;;;;5086602;28;20043;-72
2022/12/24 13:10:14;;;;;;;20.25;5.90;;;;;;;;;;5072782;28;20385;-72
2022/12/24 13:12:40;;;;;;;14.98;5.25;;;;;;;;;;5092090;28;20111;-72
2022/12/24 13:15:25;;;;;;;16.98;6.13;;;;;;;;;;5092077;28;20048;-72
2022/12/24 13:17:51;;;;;;;13.65;5.20;;;;;;;;;;5072262;28;20044;-72
2022/12/24 13:20:20;;;;;;;16.30;6.60;;;;;;;;;;5089624;28;20123;-71
2022/12/24 13:22:55;;;;;;;11.45;4.75;;;;;;;;;;5076888;28;20123;-72
2022/12/24 13:25:38;;;;;;;16.25;5.40;;;;;;;;;;5079874;28;20047;-72
2022/12/24 13:28:20;;;;;;;19.08;5.45;;;;;;;;;;5071087;28;20039;-72
2022/12/24 13:30:46;;;;;;;11.95;4.68;;;;;;;;;;5093392;28;20036;-72
2022/12/24 13:33:33;;;;;;;25.20;6.97;;;;;;;;;;5092446;28;20032;-72
2022/12/24 13:36:00;;;;;;;15.55;4.70;;;;;;;;;;5076180;28;20521;-72
2022/12/24 13:38:27;;;;;;;18.02;5.80;;;;;;;;;;5069460;28;20073;-72
2022/12/24 13:40:53;;;;;;;16.92;7.15;;;;;;;;;;5086192;28;20043;-72
2022/12/24 13:43:19;;;;;;;11.57;4.72;;;;;;;;;;5088511;28;20170;-72
2022/12/24 13:45:47;;;;;;;14.18;4.95;;;;;;;;;;5075322;28;20404;-72
2022/12/24 13:48:16;;;;;;;24.15;5.65;;;;;;;;;;5090057;28;20039;-72
2022/12/24 13:50:49;;;;;;;13.20;5.22;;;;;;;;;;5096648;28;20028;-72
2022/12/24 13:53:24;;;;;;;16.48;6.07;;;;;;;;;;5087949;28;20102;-72
2022/12/24 13:56:06;;;;;;;15.55;6.00;;;;;;;;;;5072598;28;20047;-72
2022/12/24 13:58:34;;;;;;;12.90;5.87;;;;;;;;;;5066811;28;20118;-72
2022/12/24 14:01:02;;;;;;;15.40;4.93;;;;;;;;;;5066241;28;20128;-72
2022/12/24 14:03:35;;;;;;;16.77;4.93;;;;;;;;;;5066315;28;20040;-72
2022/12/24 14:06:05;;;;;;;10.98;5.65;;;;;;;;;;5045153;28;20048;-72
2022/12/24 14:08:39;;;;;;;19.85;6.30;;;;;;;;;;5085537;28;20378;-71
2022/12/24 14:11:10;;;;;;;20.55;6.90;;;;;;;;;;5089681;28;20124;-72
2022/12/24 14:13:39;;;;;;;17.25;5.70;;;;;;;;;;5073553;28;20041;-72
2022/12/24 14:16:05;;;;;;;15.57;5.40;;;;;;;;;;5082984;28;20063;-72
2022/12/24 14:18:33;;;;;;;16.33;6.28;;;;;;;;;;5100246;28;20521;-73
2022/12/24 14:21:00;;;;;;;17.00;7.40;;;;;;;;;;5090689;28;20059;-72
2022/12/24 14:23:46;;;;;;;16.10;5.35;;;;;;;;;;5054615;28;20433;-72
2022/12/24 14:26:21;;;;;;;17.58;6.57;;;;;;;;;;5082652;28;20115;-72
2022/12/24 14:28:57;;;;;;;18.40;7.00;;;;;;;;;;5079939;28;20036;-72
2022/12/24 14:31:24;;;;;;;20.67;6.70;;;;;;;;;;5099802;28;20042;-72
2022/12/24 14:33:50;;;;;;;18.02;6.40;;;7.30;99.90;;;;;;5082822;28;20032;-71
2022/12/24 14:36:22;;;;;;;25.35;6.72;;;8.40;99.90;;;;;;5085627;28;20033;-72
2022/12/24 14:38:49;;;;;;;19.30;6.75;;;8.30;99.90;;;;;;5082143;28;20512;-72
2022/12/24 14:41:46;;;;;;;18.85;7.18;;;8.30;99.90;;;;;;5083335;28;20063;-72